sensor_id;sensor_type;location;lat;lon;timestamp;pressure;altitude;pressure_sealevel;temperature;humidity
28935;BME280;16044;52.726;-2.108;2023-04-08T00:00:48;101362.22;;;4.19;84.24
28935;BME280;16044;52.726;-2.108;2023-04-08T00:03:17;101364.69;;;4.22;82.48
28935;BME280;16044;52.726;-2.108;2023-04-08T00:05:44;101365.13;;;4.16;83.72
28935;BME280;16044;52.726;-2.108;2023-04-08T00:08:11;101364.53;;;4.12;83.81
28935;BME280;16044;52.726;-2.108;2023-04-08T00:10:39;101371.19;;;4.06;84.32
28935;BME280;16044;52.726;-2.108;2023-04-08T00:13:06;101362.63;;;4.01;85.33
28935;BME280;16044;52.726;-2.108;2023-04-08T00:15:33;101372.38;;;4.02;84.19
28935;BME280;16044;52.726;-2.108;2023-04-08T00:18:00;101367.56;;;3.95;84.75
28935;BME280;16044;52.726;-2.108;2023-04-08T00:20:27;101371.13;;;3.95;83.95
28935;BME280;16044;52.726;-2.108;2023-04-08T00:22:54;101366.19;;;3.89;85.65
28935;BME280;16044;52.726;-2.108;2023-04-08T00:25:21;101363.75;;;3.86;84.99
28935;BME280;16044;52.726;-2.108;2023-04-08T00:27:51;101374.59;;;3.84;85.22
28935;BME280;16044;52.726;-2.108;2023-04-08T00:30:18;101371.47;;;3.78;86.29
28935;BME280;16044;52.726;-2.108;2023-04-08T00:32:45;101370.84;;;3.74;86.58
28935;BME280;16044;52.726;-2.108;2023-04-08T00:35:12;101368.06;;;3.76;85.58
28935;BME280;16044;52.726;-2.108;2023-04-08T00:37:39;101374.59;;;3.71;85.67
28935;BME280;16044;52.726;-2.108;2023-04-08T00:40:07;101371.41;;;3.66;86.45
28935;BME280;16044;52.726;-2.108;2023-04-08T00:42:35;101369.59;;;3.67;86.17
28935;BME280;16044;52.726;-2.108;2023-04-08T00:45:02;101375.16;;;3.64;86.33
28935;BME280;16044;52.726;-2.108;2023-04-08T00:47:29;101377.19;;;3.60;87.11
28935;BME280;16044;52.726;-2.108;2023-04-08T00:49:57;101380.63;;;3.62;85.64
28935;BME280;16044;52.726;-2.108;2023-04-08T00:52:24;101377.41;;;3.57;86.28
28935;BME280;16044;52.726;-2.108;2023-04-08T00:54:51;101373.25;;;3.53;86.64
28935;BME280;16044;52.726;-2.108;2023-04-08T00:57:18;101376.38;;;3.47;86.56
28935;BME280;16044;52.726;-2.108;2023-04-08T00:59:45;101379.16;;;3.45;86.36
28935;BME280;16044;52.726;-2.108;2023-04-08T01:04:52;101383.22;;;3.38;85.61
28935;BME280;16044;52.726;-2.108;2023-04-08T01:07:27;101379.06;;;3.34;86.57
28935;BME280;16044;52.726;-2.108;2023-04-08T01:10:02;101379.28;;;3.31;86.63
28935;BME280;16044;52.726;-2.108;2023-04-08T01:12:36;101376.16;;;3.24;87.55
28935;BME280;16044;52.726;-2.108;2023-04-08T01:15:07;101376.16;;;3.24;87.37
28935;BME280;16044;52.726;-2.108;2023-04-08T01:17:37;101378.31;;;3.19;88.42
28935;BME280;16044;52.726;-2.108;2023-04-08T01:20:06;101382.16;;;3.15;88.55
28935;BME280;16044;52.726;-2.108;2023-04-08T01:25:31;101383.25;;;3.12;87.46
28935;BME280;16044;52.726;-2.108;2023-04-08T01:28:00;101384.28;;;3.10;87.84
28935;BME280;16044;52.726;-2.108;2023-04-08T01:30:31;101388.16;;;3.06;88.41
28935;BME280;16044;52.726;-2.108;2023-04-08T01:33:00;101391.81;;;3.05;88.51
28935;BME280;16044;52.726;-2.108;2023-04-08T01:35:29;101386.56;;;3.03;88.47
28935;BME280;16044;52.726;-2.108;2023-04-08T01:37:57;101398.13;;;3.04;87.61
28935;BME280;16044;52.726;-2.108;2023-04-08T01:40:25;101400.91;;;3.02;87.58
28935;BME280;16044;52.726;-2.108;2023-04-08T01:42:55;101400.16;;;3.00;88.24
28935;BME280;16044;52.726;-2.108;2023-04-08T01:45:23;101392.53;;;2.94;90.06
28935;BME280;16044;52.726;-2.108;2023-04-08T01:47:51;101393.53;;;2.93;89.97
28935;BME280;16044;52.726;-2.108;2023-04-08T01:50:19;101397.78;;;2.96;88.10
28935;BME280;16044;52.726;-2.108;2023-04-08T01:52:48;101399.91;;;2.90;89.60
28935;BME280;16044;52.726;-2.108;2023-04-08T01:55:16;101396.50;;;2.88;88.96
28935;BME280;16044;52.726;-2.108;2023-04-08T01:57:47;101399.38;;;2.85;88.77
28935;BME280;16044;52.726;-2.108;2023-04-08T02:00:19;101401.19;;;2.85;88.23
28935;BME280;16044;52.726;-2.108;2023-04-08T02:02:49;101402.47;;;2.79;90.62
28935;BME280;16044;52.726;-2.108;2023-04-08T02:05:17;101406.13;;;2.78;90.65
28935;BME280;16044;52.726;-2.108;2023-04-08T02:07:46;101401.81;;;2.76;90.61
28935;BME280;16044;52.726;-2.108;2023-04-08T02:10:14;101395.41;;;2.78;89.13
28935;BME280;16044;52.726;-2.108;2023-04-08T02:12:43;101401.16;;;2.72;90.48
28935;BME280;16044;52.726;-2.108;2023-04-08T02:15:11;101405.56;;;2.73;89.69
28935;BME280;16044;52.726;-2.108;2023-04-08T02:17:55;101393.47;;;2.67;89.60
28935;BME280;16044;52.726;-2.108;2023-04-08T02:23:18;101400.84;;;2.64;90.45
28935;BME280;16044;52.726;-2.108;2023-04-08T02:25:47;101403.50;;;2.64;89.58
28935;BME280;16044;52.726;-2.108;2023-04-08T02:28:17;101399.44;;;2.58;91.48
28935;BME280;16044;52.726;-2.108;2023-04-08T02:30:49;101409.28;;;2.58;91.86
28935;BME280;16044;52.726;-2.108;2023-04-08T02:33:19;101402.44;;;2.53;92.14
28935;BME280;16044;52.726;-2.108;2023-04-08T02:35:51;101397.16;;;2.52;91.57
28935;BME280;16044;52.726;-2.108;2023-04-08T02:38:21;101406.03;;;2.52;91.91
28935;BME280;16044;52.726;-2.108;2023-04-08T02:40:50;101404.34;;;2.51;90.95
28935;BME280;16044;52.726;-2.108;2023-04-08T02:43:17;101417.50;;;2.54;90.20
28935;BME280;16044;52.726;-2.108;2023-04-08T02:45:44;101418.66;;;2.50;91.35
28935;BME280;16044;52.726;-2.108;2023-04-08T02:48:11;101409.88;;;2.48;90.97
28935;BME280;16044;52.726;-2.108;2023-04-08T02:50:38;101420.78;;;2.45;91.59
28935;BME280;16044;52.726;-2.108;2023-04-08T02:53:07;101426.13;;;2.45;92.37
28935;BME280;16044;52.726;-2.108;2023-04-08T02:55:35;101421.00;;;2.42;92.23
28935;BME280;16044;52.726;-2.108;2023-04-08T02:58:02;101429.97;;;2.41;91.74
28935;BME280;16044;52.726;-2.108;2023-04-08T03:00:29;101433.72;;;2.39;92.56
28935;BME280;16044;52.726;-2.108;2023-04-08T03:02:56;101432.97;;;2.37;91.82
28935;BME280;16044;52.726;-2.108;2023-04-08T03:05:26;101431.34;;;2.34;92.89
28935;BME280;16044;52.726;-2.108;2023-04-08T03:07:53;101440.34;;;2.33;92.78
28935;BME280;16044;52.726;-2.108;2023-04-08T03:10:19;101438.69;;;2.30;93.05
28935;BME280;16044;52.726;-2.108;2023-04-08T03:12:46;101432.50;;;2.30;91.90
28935;BME280;16044;52.726;-2.108;2023-04-08T03:15:14;101444.25;;;2.27;92.42
28935;BME280;16044;52.726;-2.108;2023-04-08T03:17:41;101442.75;;;2.23;93.46
28935;BME280;16044;52.726;-2.108;2023-04-08T03:20:08;101443.78;;;2.21;94.34
28935;BME280;16044;52.726;-2.108;2023-04-08T03:22:36;101440.34;;;2.19;94.63
28935;BME280;16044;52.726;-2.108;2023-04-08T03:25:03;101441.44;;;2.16;95.41
28935;BME280;16044;52.726;-2.108;2023-04-08T03:27:30;101446.88;;;2.14;95.91
28935;BME280;16044;52.726;-2.108;2023-04-08T03:29:57;101446.03;;;2.14;95.08
28935;BME280;16044;52.726;-2.108;2023-04-08T03:32:24;101446.13;;;2.12;94.08
28935;BME280;16044;52.726;-2.108;2023-04-08T03:34:51;101446.28;;;2.09;94.74
28935;BME280;16044;52.726;-2.108;2023-04-08T03:37:19;101442.00;;;2.07;94.72
28935;BME280;16044;52.726;-2.108;2023-04-08T03:39:45;101446.69;;;2.03;95.65
28935;BME280;16044;52.726;-2.108;2023-04-08T03:42:12;101452.91;;;2.04;94.83
28935;BME280;16044;52.726;-2.108;2023-04-08T03:44:39;101449.56;;;2.00;94.56
28935;BME280;16044;52.726;-2.108;2023-04-08T03:47:07;101453.97;;;2.01;93.88
28935;BME280;16044;52.726;-2.108;2023-04-08T03:49:34;101447.19;;;1.95;94.07
28935;BME280;16044;52.726;-2.108;2023-04-08T03:52:01;101448.13;;;1.94;94.59
28935;BME280;16044;52.726;-2.108;2023-04-08T03:54:28;101452.81;;;1.91;95.51
28935;BME280;16044;52.726;-2.108;2023-04-08T03:56:55;101452.81;;;1.91;95.42
28935;BME280;16044;52.726;-2.108;2023-04-08T03:59:22;101454.72;;;1.89;95.09
28935;BME280;16044;52.726;-2.108;2023-04-08T04:01:49;101451.19;;;1.88;94.51
28935;BME280;16044;52.726;-2.108;2023-04-08T04:04:16;101455.13;;;1.83;97.24
28935;BME280;16044;52.726;-2.108;2023-04-08T04:06:44;101450.00;;;1.80;97.69
28935;BME280;16044;52.726;-2.108;2023-04-08T04:09:11;101447.31;;;1.80;96.77
28935;BME280;16044;52.726;-2.108;2023-04-08T04:11:38;101450.06;;;1.78;96.25
28935;BME280;16044;52.726;-2.108;2023-04-08T04:14:05;101450.34;;;1.73;96.42
28935;BME280;16044;52.726;-2.108;2023-04-08T04:16:31;101453.22;;;1.70;96.34
28935;BME280;16044;52.726;-2.108;2023-04-08T04:18:59;101457.81;;;1.68;95.81
28935;BME280;16044;52.726;-2.108;2023-04-08T04:21:26;101453.59;;;1.64;97.51
28935;BME280;16044;52.726;-2.108;2023-04-08T04:23:53;101451.97;;;1.62;96.64
28935;BME280;16044;52.726;-2.108;2023-04-08T04:26:20;101446.72;;;1.60;96.61
28935;BME280;16044;52.726;-2.108;2023-04-08T04:28:47;101453.22;;;1.56;96.38
28935;BME280;16044;52.726;-2.108;2023-04-08T04:31:19;101458.84;;;1.51;96.44
28935;BME280;16044;52.726;-2.108;2023-04-08T04:33:52;101454.53;;;1.49;96.94
28935;BME280;16044;52.726;-2.108;2023-04-08T04:36:19;101459.13;;;1.47;96.26
28935;BME280;16044;52.726;-2.108;2023-04-08T04:38:46;101461.03;;;1.45;95.58
28935;BME280;16044;52.726;-2.108;2023-04-08T04:41:16;101458.66;;;1.40;96.93
28935;BME280;16044;52.726;-2.108;2023-04-08T04:43:43;101467.69;;;1.38;97.46
28935;BME280;16044;52.726;-2.108;2023-04-08T04:46:10;101475.78;;;1.36;96.42
28935;BME280;16044;52.726;-2.108;2023-04-08T04:48:37;101470.56;;;1.34;96.37
28935;BME280;16044;52.726;-2.108;2023-04-08T04:51:04;101480.50;;;1.32;96.44
28935;BME280;16044;52.726;-2.108;2023-04-08T04:53:33;101481.59;;;1.28;97.33
28935;BME280;16044;52.726;-2.108;2023-04-08T04:56:00;101480.66;;;1.29;95.63
28935;BME280;16044;52.726;-2.108;2023-04-08T04:58:28;101475.69;;;1.23;96.71
28935;BME280;16044;52.726;-2.108;2023-04-08T05:00:56;101484.06;;;1.17;98.92
28935;BME280;16044;52.726;-2.108;2023-04-08T05:03:23;101481.31;;;1.19;97.97
28935;BME280;16044;52.726;-2.108;2023-04-08T05:05:52;101484.06;;;1.17;96.45
28935;BME280;16044;52.726;-2.108;2023-04-08T05:08:20;101484.25;;;1.14;97.03
28935;BME280;16044;52.726;-2.108;2023-04-08T05:10:47;101487.09;;;1.11;96.34
28935;BME280;16044;52.726;-2.108;2023-04-08T05:13:17;101488.25;;;1.07;97.23
28935;BME280;16044;52.726;-2.108;2023-04-08T05:15:44;101499.00;;;1.05;97.84
28935;BME280;16044;52.726;-2.108;2023-04-08T05:18:12;101502.72;;;1.03;97.82
28935;BME280;16044;52.726;-2.108;2023-04-08T05:20:39;101498.31;;;1.02;97.74
28935;BME280;16044;52.726;-2.108;2023-04-08T05:23:06;101502.91;;;1.00;98.43
28935;BME280;16044;52.726;-2.108;2023-04-08T05:25:34;101511.88;;;0.99;98.51
28935;BME280;16044;52.726;-2.108;2023-04-08T05:28:02;101512.81;;;0.97;98.16
28935;BME280;16044;52.726;-2.108;2023-04-08T05:30:29;101517.38;;;0.95;97.35
28935;BME280;16044;52.726;-2.108;2023-04-08T05:32:56;101519.19;;;0.95;96.90
28935;BME280;16044;52.726;-2.108;2023-04-08T05:35:26;101522.88;;;0.92;97.79
28935;BME280;16044;52.726;-2.108;2023-04-08T05:37:54;101525.47;;;0.94;97.55
28935;BME280;16044;52.726;-2.108;2023-04-08T05:40:21;101523.06;;;0.89;99.32
28935;BME280;16044;52.726;-2.108;2023-04-08T05:42:48;101534.44;;;0.93;98.01
28935;BME280;16044;52.726;-2.108;2023-04-08T05:45:14;101526.50;;;0.91;100.00
28935;BME280;16044;52.726;-2.108;2023-04-08T05:47:41;101532.47;;;0.96;98.19
28935;BME280;16044;52.726;-2.108;2023-04-08T05:50:09;101531.41;;;0.99;98.83
28935;BME280;16044;52.726;-2.108;2023-04-08T05:52:41;101538.56;;;0.99;99.67
28935;BME280;16044;52.726;-2.108;2023-04-08T05:55:11;101535.16;;;1.11;98.37
28935;BME280;16044;52.726;-2.108;2023-04-08T05:57:40;101541.34;;;1.27;98.67
28935;BME280;16044;52.726;-2.108;2023-04-08T06:00:08;101544.81;;;1.44;100.00
28935;BME280;16044;52.726;-2.108;2023-04-08T06:02:36;101547.13;;;1.64;100.00
28935;BME280;16044;52.726;-2.108;2023-04-08T06:05:04;101544.09;;;1.85;100.00
28935;BME280;16044;52.726;-2.108;2023-04-08T06:07:32;101551.34;;;2.11;100.00
28935;BME280;16044;52.726;-2.108;2023-04-08T06:09:59;101551.47;;;2.24;100.00
28935;BME280;16044;52.726;-2.108;2023-04-08T06:12:26;101556.50;;;2.43;99.00
28935;BME280;16044;52.726;-2.108;2023-04-08T06:14:54;101553.91;;;2.56;98.47
28935;BME280;16044;52.726;-2.108;2023-04-08T06:17:21;101552.25;;;2.68;97.85
28935;BME280;16044;52.726;-2.108;2023-04-08T06:19:49;101563.38;;;2.89;97.09
28935;BME280;16044;52.726;-2.108;2023-04-08T06:22:16;101553.38;;;3.05;96.74
28935;BME280;16044;52.726;-2.108;2023-04-08T06:24:46;101557.78;;;3.19;96.44
28935;BME280;16044;52.726;-2.108;2023-04-08T06:27:14;101555.91;;;3.34;96.04
28935;BME280;16044;52.726;-2.108;2023-04-08T06:29:41;101554.34;;;3.44;95.65
28935;BME280;16044;52.726;-2.108;2023-04-08T06:32:09;101550.50;;;3.61;95.59
28935;BME280;16044;52.726;-2.108;2023-04-08T06:34:36;101558.78;;;3.84;95.13
28935;BME280;16044;52.726;-2.108;2023-04-08T06:37:04;101549.66;;;3.99;95.40
28935;BME280;16044;52.726;-2.108;2023-04-08T06:39:32;101551.38;;;4.13;95.12
28935;BME280;16044;52.726;-2.108;2023-04-08T06:41:59;101549.06;;;4.33;94.69
28935;BME280;16044;52.726;-2.108;2023-04-08T06:44:26;101549.59;;;4.51;94.59
28935;BME280;16044;52.726;-2.108;2023-04-08T06:46:53;101548.13;;;4.71;94.59
28935;BME280;16044;52.726;-2.108;2023-04-08T06:49:20;101546.88;;;4.87;94.43
28935;BME280;16044;52.726;-2.108;2023-04-08T06:51:47;101551.88;;;5.05;94.33
28935;BME280;16044;52.726;-2.108;2023-04-08T06:54:14;101550.75;;;5.32;94.53
28935;BME280;16044;52.726;-2.108;2023-04-08T06:56:41;101556.81;;;5.46;94.40
28935;BME280;16044;52.726;-2.108;2023-04-08T06:59:08;101556.59;;;5.61;93.28
28935;BME280;16044;52.726;-2.108;2023-04-08T07:01:35;101558.72;;;5.80;92.71
28935;BME280;16044;52.726;-2.108;2023-04-08T07:04:02;101567.28;;;5.85;91.89
28935;BME280;16044;52.726;-2.108;2023-04-08T07:06:29;101570.88;;;5.97;91.55
28935;BME280;16044;52.726;-2.108;2023-04-08T07:08:56;101571.50;;;6.00;90.02
28935;BME280;16044;52.726;-2.108;2023-04-08T07:11:23;101569.25;;;5.94;89.88
28935;BME280;16044;52.726;-2.108;2023-04-08T07:13:50;101567.06;;;5.88;90.09
28935;BME280;16044;52.726;-2.108;2023-04-08T07:16:18;101568.25;;;5.84;90.20
28935;BME280;16044;52.726;-2.108;2023-04-08T07:18:44;101562.88;;;5.84;90.01
28935;BME280;16044;52.726;-2.108;2023-04-08T07:21:13;101572.66;;;5.85;90.17
28935;BME280;16044;52.726;-2.108;2023-04-08T07:23:40;101564.81;;;5.82;90.14
28935;BME280;16044;52.726;-2.108;2023-04-08T07:26:07;101571.94;;;5.83;90.24
28935;BME280;16044;52.726;-2.108;2023-04-08T07:28:35;101580.13;;;5.93;90.46
28935;BME280;16044;52.726;-2.108;2023-04-08T07:31:12;101581.97;;;5.92;90.60
28935;BME280;16044;52.726;-2.108;2023-04-08T07:33:42;101576.66;;;6.03;90.71
28935;BME280;16044;52.726;-2.108;2023-04-08T07:36:10;101576.41;;;6.18;90.44
28935;BME280;16044;52.726;-2.108;2023-04-08T07:38:38;101573.47;;;6.32;90.22
28935;BME280;16044;52.726;-2.108;2023-04-08T07:41:06;101581.31;;;6.47;91.24
28935;BME280;16044;52.726;-2.108;2023-04-08T07:43:33;101582.16;;;6.58;91.33
28935;BME280;16044;52.726;-2.108;2023-04-08T07:46:05;101588.38;;;6.81;90.60
28935;BME280;16044;52.726;-2.108;2023-04-08T07:48:33;101585.38;;;7.07;89.39
28935;BME280;16044;52.726;-2.108;2023-04-08T07:51:05;101584.06;;;7.34;89.03
28935;BME280;16044;52.726;-2.108;2023-04-08T07:53:37;101592.66;;;7.60;87.93
28935;BME280;16044;52.726;-2.108;2023-04-08T07:56:12;101599.97;;;7.90;87.52
28935;BME280;16044;52.726;-2.108;2023-04-08T07:58:40;101596.31;;;8.22;86.83
28935;BME280;16044;52.726;-2.108;2023-04-08T08:01:19;101592.22;;;8.49;85.31
28935;BME280;16044;52.726;-2.108;2023-04-08T08:03:48;101595.84;;;8.69;84.43
28935;BME280;16044;52.726;-2.108;2023-04-08T08:06:17;101597.72;;;8.78;83.60
28935;BME280;16044;52.726;-2.108;2023-04-08T08:08:44;101604.19;;;9.06;82.85
28935;BME280;16044;52.726;-2.108;2023-04-08T08:11:11;101599.38;;;9.29;82.39
28935;BME280;16044;52.726;-2.108;2023-04-08T08:13:39;101610.78;;;9.33;81.89
28935;BME280;16044;52.726;-2.108;2023-04-08T08:16:06;101601.38;;;9.66;80.82
28935;BME280;16044;52.726;-2.108;2023-04-08T08:18:34;101603.91;;;9.87;80.33
28935;BME280;16044;52.726;-2.108;2023-04-08T08:21:02;101603.34;;;9.93;79.10
28935;BME280;16044;52.726;-2.108;2023-04-08T08:23:29;101607.00;;;10.12;78.36
28935;BME280;16044;52.726;-2.108;2023-04-08T08:26:01;101606.94;;;10.51;77.23
28935;BME280;16044;52.726;-2.108;2023-04-08T08:28:28;101605.06;;;10.79;77.64
28935;BME280;16044;52.726;-2.108;2023-04-08T08:30:55;101614.72;;;10.91;76.04
28935;BME280;16044;52.726;-2.108;2023-04-08T08:33:24;101627.31;;;11.28;74.73
28935;BME280;16044;52.726;-2.108;2023-04-08T08:35:51;101620.59;;;11.50;74.21
28935;BME280;16044;52.726;-2.108;2023-04-08T08:38:18;101621.97;;;11.55;73.78
28935;BME280;16044;52.726;-2.108;2023-04-08T08:40:45;101622.16;;;11.71;73.40
28935;BME280;16044;52.726;-2.108;2023-04-08T08:43:12;101622.19;;;11.79;73.54
28935;BME280;16044;52.726;-2.108;2023-04-08T08:45:40;101620.28;;;11.89;73.36
28935;BME280;16044;52.726;-2.108;2023-04-08T08:48:08;101626.69;;;11.88;72.47
28935;BME280;16044;52.726;-2.108;2023-04-08T08:50:35;101627.41;;;11.90;72.77
28935;BME280;16044;52.726;-2.108;2023-04-08T08:53:02;101628.03;;;11.84;72.58
28935;BME280;16044;52.726;-2.108;2023-04-08T08:55:31;101623.72;;;11.56;71.35
28935;BME280;16044;52.726;-2.108;2023-04-08T08:58:21;101632.38;;;11.77;71.90
28935;BME280;16044;52.726;-2.108;2023-04-08T09:00:47;101628.03;;;11.84;72.50
28935;BME280;16044;52.726;-2.108;2023-04-08T09:05:59;101625.31;;;12.02;73.29
28935;BME280;16044;52.726;-2.108;2023-04-08T09:08:32;101625.28;;;12.20;73.00
28935;BME280;16044;52.726;-2.108;2023-04-08T09:11:25;101611.25;;;12.33;73.06
28935;BME280;16044;52.726;-2.108;2023-04-08T09:13:52;101613.69;;;12.44;72.65
28935;BME280;16044;52.726;-2.108;2023-04-08T09:16:19;101610.34;;;12.59;72.51
28935;BME280;16044;52.726;-2.108;2023-04-08T09:18:48;101611.56;;;12.64;71.41
28935;BME280;16044;52.726;-2.108;2023-04-08T09:21:16;101617.75;;;12.75;71.17
28935;BME280;16044;52.726;-2.108;2023-04-08T09:23:46;101621.53;;;12.82;69.93
28935;BME280;16044;52.726;-2.108;2023-04-08T09:26:20;101615.59;;;12.86;69.08
28935;BME280;16044;52.726;-2.108;2023-04-08T09:29:05;101610.69;;;12.90;68.11
28935;BME280;16044;52.726;-2.108;2023-04-08T09:31:55;101607.28;;;12.96;67.73
28935;BME280;16044;52.726;-2.108;2023-04-08T09:34:24;101616.66;;;13.02;67.68
28935;BME280;16044;52.726;-2.108;2023-04-08T09:36:53;101622.97;;;13.02;66.75
28935;BME280;16044;52.726;-2.108;2023-04-08T09:39:21;101620.28;;;13.11;66.87
28935;BME280;16044;52.726;-2.108;2023-04-08T09:41:50;101621.63;;;13.15;65.71
28935;BME280;16044;52.726;-2.108;2023-04-08T09:44:19;101627.78;;;13.25;65.26
28935;BME280;16044;52.726;-2.108;2023-04-08T09:52:09;101625.84;;;13.52;61.65
28935;BME280;16044;52.726;-2.108;2023-04-08T10:00:11;101635.06;;;13.67;59.25
28935;BME280;16044;52.726;-2.108;2023-04-08T10:05:40;101630.13;;;13.79;56.53
28935;BME280;16044;52.726;-2.108;2023-04-08T10:08:08;101626.19;;;13.81;55.76
28935;BME280;16044;52.726;-2.108;2023-04-08T10:10:38;101619.03;;;13.80;54.72
28935;BME280;16044;52.726;-2.108;2023-04-08T10:13:06;101623.13;;;13.84;54.86
28935;BME280;16044;52.726;-2.108;2023-04-08T10:15:34;101611.53;;;13.91;54.98
28935;BME280;16044;52.726;-2.108;2023-04-08T10:23:03;101612.56;;;14.14;54.99
28935;BME280;16044;52.726;-2.108;2023-04-08T10:25:32;101605.69;;;14.27;54.56
28935;BME280;16044;52.726;-2.108;2023-04-08T10:28:01;101603.44;;;14.38;55.02
28935;BME280;16044;52.726;-2.108;2023-04-08T10:30:49;101600.22;;;14.43;52.92
28935;BME280;16044;52.726;-2.108;2023-04-08T10:38:38;101603.63;;;14.45;48.04
28935;BME280;16044;52.726;-2.108;2023-04-08T10:41:10;101596.44;;;14.44;48.46
28935;BME280;16044;52.726;-2.108;2023-04-08T10:43:39;101597.47;;;14.43;47.89
28935;BME280;16044;52.726;-2.108;2023-04-08T10:46:09;101592.19;;;14.41;47.60
28935;BME280;16044;52.726;-2.108;2023-04-08T10:48:37;101589.63;;;14.40;46.65
28935;BME280;16044;52.726;-2.108;2023-04-08T10:51:04;101580.44;;;14.41;45.02
28935;BME280;16044;52.726;-2.108;2023-04-08T10:53:36;101583.84;;;14.43;43.54
28935;BME280;16044;52.726;-2.108;2023-04-08T10:56:07;101583.97;;;14.50;44.09
28935;BME280;16044;52.726;-2.108;2023-04-08T10:58:49;101587.75;;;14.49;42.59
28935;BME280;16044;52.726;-2.108;2023-04-08T11:01:18;101586.03;;;14.56;43.03
28935;BME280;16044;52.726;-2.108;2023-04-08T11:03:45;101579.38;;;14.58;43.08
28935;BME280;16044;52.726;-2.108;2023-04-08T11:06:12;101580.00;;;14.69;43.87
28935;BME280;16044;52.726;-2.108;2023-04-08T11:08:40;101580.34;;;14.74;43.75
28935;BME280;16044;52.726;-2.108;2023-04-08T11:11:07;101580.00;;;14.77;43.88
28935;BME280;16044;52.726;-2.108;2023-04-08T11:13:41;101577.59;;;14.82;43.42
28935;BME280;16044;52.726;-2.108;2023-04-08T11:16:20;101570.06;;;14.84;42.94
28935;BME280;16044;52.726;-2.108;2023-04-08T11:18:49;101574.16;;;14.80;43.02
28935;BME280;16044;52.726;-2.108;2023-04-08T11:21:17;101562.91;;;14.83;43.32
28935;BME280;16044;52.726;-2.108;2023-04-08T11:23:43;101564.78;;;14.82;42.91
28935;BME280;16044;52.726;-2.108;2023-04-08T11:26:12;101566.47;;;14.84;43.27
28935;BME280;16044;52.726;-2.108;2023-04-08T11:28:41;101564.78;;;14.82;44.09
28935;BME280;16044;52.726;-2.108;2023-04-08T11:31:09;101571.03;;;14.91;44.51
28935;BME280;16044;52.726;-2.108;2023-04-08T11:33:36;101570.34;;;14.97;44.95
28935;BME280;16044;52.726;-2.108;2023-04-08T11:36:04;101568.63;;;14.96;43.38
28935;BME280;16044;52.726;-2.108;2023-04-08T11:38:31;101568.28;;;14.99;43.96
28935;BME280;16044;52.726;-2.108;2023-04-08T11:40:59;101568.78;;;15.03;44.53
28935;BME280;16044;52.726;-2.108;2023-04-08T11:43:26;101578.47;;;15.06;44.16
28935;BME280;16044;52.726;-2.108;2023-04-08T11:45:54;101563.06;;;15.13;44.07
28935;BME280;16044;52.726;-2.108;2023-04-08T11:48:21;101571.94;;;15.15;43.47
28935;BME280;16044;52.726;-2.108;2023-04-08T11:51:04;101571.22;;;15.21;43.55
28935;BME280;16044;52.726;-2.108;2023-04-08T11:53:34;101568.78;;;15.26;42.89
28935;BME280;16044;52.726;-2.108;2023-04-08T11:56:17;101561.63;;;15.25;42.84
28935;BME280;16044;52.726;-2.108;2023-04-08T11:58:45;101565.00;;;15.27;42.36
28935;BME280;16044;52.726;-2.108;2023-04-08T12:01:13;101567.22;;;15.32;42.23
28935;BME280;16044;52.726;-2.108;2023-04-08T12:04:00;101568.56;;;15.36;42.91
28935;BME280;16044;52.726;-2.108;2023-04-08T12:06:28;101566.88;;;15.35;42.70
28935;BME280;16044;52.726;-2.108;2023-04-08T12:08:55;101551.50;;;15.34;42.49
28935;BME280;16044;52.726;-2.108;2023-04-08T12:11:22;101548.75;;;15.34;43.08
28935;BME280;16044;52.726;-2.108;2023-04-08T12:13:50;101541.41;;;15.34;42.87
28935;BME280;16044;52.726;-2.108;2023-04-08T12:16:18;101556.41;;;15.38;43.03
28935;BME280;16044;52.726;-2.108;2023-04-08T12:18:46;101551.59;;;15.40;42.46
28935;BME280;16044;52.726;-2.108;2023-04-08T12:21:13;101549.34;;;15.44;42.82
28935;BME280;16044;52.726;-2.108;2023-04-08T12:23:40;101544.38;;;15.48;42.83
28935;BME280;16044;52.726;-2.108;2023-04-08T12:26:07;101549.97;;;15.54;42.31
28935;BME280;16044;52.726;-2.108;2023-04-08T12:28:34;101543.00;;;15.67;42.78
28935;BME280;16044;52.726;-2.108;2023-04-08T12:31:02;101540.25;;;15.75;41.97
28935;BME280;16044;52.726;-2.108;2023-04-08T12:33:29;101538.66;;;15.81;41.80
28935;BME280;16044;52.726;-2.108;2023-04-08T12:35:57;101546.78;;;15.89;42.05
28935;BME280;16044;52.726;-2.108;2023-04-08T12:38:25;101530.00;;;15.92;41.78
28935;BME280;16044;52.726;-2.108;2023-04-08T12:40:53;101541.97;;;15.91;41.84
28935;BME280;16044;52.726;-2.108;2023-04-08T12:43:21;101536.81;;;15.96;41.93
28935;BME280;16044;52.726;-2.108;2023-04-08T12:45:50;101532.66;;;16.00;41.81
28935;BME280;16044;52.726;-2.108;2023-04-08T12:48:17;101528.50;;;16.04;41.52
28935;BME280;16044;52.726;-2.108;2023-04-08T12:50:45;101532.78;;;16.07;41.69
28935;BME280;16044;52.726;-2.108;2023-04-08T12:53:12;101528.63;;;16.11;41.93
28935;BME280;16044;52.726;-2.108;2023-04-08T12:55:38;101526.06;;;16.09;41.34
28935;BME280;16044;52.726;-2.108;2023-04-08T12:58:07;101526.06;;;16.09;41.49
28935;BME280;16044;52.726;-2.108;2023-04-08T13:00:34;101533.22;;;16.10;41.22
28935;BME280;16044;52.726;-2.108;2023-04-08T13:03:04;101524.75;;;16.05;40.70
28935;BME280;16044;52.726;-2.108;2023-04-08T13:05:32;101520.69;;;16.16;41.25
28935;BME280;16044;52.726;-2.108;2023-04-08T13:08:09;101522.69;;;16.22;41.02
28935;BME280;16044;52.726;-2.108;2023-04-08T13:10:41;101514.94;;;16.26;41.29
28935;BME280;16044;52.726;-2.108;2023-04-08T13:13:08;101524.72;;;16.35;40.74
28935;BME280;16044;52.726;-2.108;2023-04-08T13:15:35;101520.31;;;16.34;39.93
28935;BME280;16044;52.726;-2.108;2023-04-08T13:18:02;101521.44;;;16.25;39.63
28935;BME280;16044;52.726;-2.108;2023-04-08T13:20:30;101526.06;;;16.09;39.40
28935;BME280;16044;52.726;-2.108;2023-04-08T13:22:57;101515.13;;;15.94;39.81
28935;BME280;16044;52.726;-2.108;2023-04-08T13:25:26;101520.28;;;15.89;40.56
28935;BME280;16044;52.726;-2.108;2023-04-08T13:27:53;101514.72;;;15.83;40.01